createdAt,value
2019-03-05T00:01:54.166Z,6.30
2019-03-05T00:06:05.492Z,6.30
2019-03-05T00:10:18.819Z,6.30
2019-03-05T00:14:30.643Z,6.40
2019-03-05T00:18:41.804Z,6.30
2019-03-05T00:22:53.124Z,6.20
2019-03-05T00:27:04.237Z,6.20
2019-03-05T00:31:18.500Z,6.10
2019-03-05T00:35:41.536Z,6.20
2019-03-05T00:40:23.501Z,6.20
2019-03-05T00:45:06.471Z,6.20
2019-03-05T00:49:23.495Z,6.30
2019-03-05T00:54:14.165Z,6.30
2019-03-05T00:58:31.356Z,6.20
2019-03-05T01:02:55.357Z,6.20
2019-03-05T01:07:06.555Z,6.20
2019-03-05T01:11:18.694Z,6.20
2019-03-05T01:15:30.371Z,6.10
2019-03-05T01:19:41.517Z,6.10
2019-03-05T01:23:52.749Z,6.10
2019-03-05T01:28:04.307Z,6.10
2019-03-05T01:32:35.517Z,6.10
2019-03-05T01:36:48.416Z,6.20
2019-03-05T01:41:01.183Z,6.30
2019-03-05T01:45:12.985Z,6.30
2019-03-05T01:49:24.151Z,6.30
2019-03-05T01:53:35.265Z,6.30
2019-03-05T01:57:46.440Z,6.30
2019-03-05T02:01:57.655Z,6.40
2019-03-05T02:06:08.876Z,6.40
2019-03-05T02:10:22.259Z,6.40
2019-03-05T02:14:34.588Z,6.40
2019-03-05T02:18:45.889Z,6.30
2019-03-05T02:23:03.026Z,6.40
2019-03-05T02:27:49.246Z,6.40
2019-03-05T02:32:20.247Z,6.40
2019-03-05T02:37:08.176Z,6.40
2019-03-05T02:41:34.515Z,6.40
2019-03-05T02:45:51.701Z,6.50
2019-03-05T02:50:39.716Z,6.60
2019-03-05T02:55:02.644Z,6.80
2019-03-05T02:59:12.715Z,6.90
2019-03-05T03:03:30.977Z,6.90
2019-03-05T03:07:42.187Z,6.90
2019-03-05T03:11:53.527Z,6.90
2019-03-05T03:16:04.645Z,6.90
2019-03-05T03:20:16.491Z,6.90
2019-03-05T03:24:27.840Z,6.80
2019-03-05T03:28:39.100Z,6.80
2019-03-05T03:32:50.215Z,6.80
2019-03-05T03:37:01.329Z,6.80
2019-03-05T03:41:13.248Z,6.80
2019-03-05T03:45:24.654Z,6.70
2019-03-05T03:49:35.911Z,6.80
2019-03-05T03:53:47.129Z,6.70
2019-03-05T03:57:58.365Z,6.70
2019-03-05T04:02:09.612Z,6.70
2019-03-05T04:06:20.740Z,6.70
2019-03-05T04:10:31.859Z,6.70
2019-03-05T04:14:43.122Z,6.70
2019-03-05T04:18:54.257Z,6.80
2019-03-05T04:23:06.740Z,6.80
2019-03-05T04:27:17.991Z,6.80
2019-03-05T04:31:29.372Z,6.90
2019-03-05T04:35:40.601Z,6.80
2019-03-05T04:39:51.888Z,6.90
2019-03-05T04:44:03.247Z,6.90
2019-03-05T04:48:14.598Z,6.90
2019-03-05T04:52:26.196Z,6.90
2019-03-05T04:56:37.373Z,6.90
2019-03-05T05:00:48.610Z,6.90
2019-03-05T05:04:59.961Z,6.80
2019-03-05T05:09:11.756Z,6.90
2019-03-05T05:13:25.180Z,6.80
2019-03-05T05:17:36.483Z,6.80
2019-03-05T05:21:48.128Z,6.70
2019-03-05T05:25:59.410Z,6.70
2019-03-05T05:30:36.414Z,6.60
2019-03-05T05:34:47.784Z,6.60
2019-03-05T05:38:58.908Z,6.60
2019-03-05T05:43:13.232Z,6.70
2019-03-05T05:47:24.392Z,6.70
2019-03-05T05:51:35.651Z,6.70
2019-03-05T05:55:46.755Z,6.70
2019-03-05T05:59:57.965Z,6.80
2019-03-05T06:04:08.631Z,6.80
2019-03-05T06:08:19.976Z,6.80
2019-03-05T06:12:31.127Z,6.70
2019-03-05T06:16:42.489Z,6.70
2019-03-05T06:20:53.819Z,6.70
2019-03-05T06:25:06.874Z,6.70
2019-03-05T06:29:18.796Z,6.60
2019-03-05T06:33:29.953Z,6.70
2019-03-05T06:37:41.140Z,6.70
2019-03-05T06:41:53.774Z,6.70
2019-03-05T06:46:05.094Z,6.70
2019-03-05T06:50:23.500Z,6.70
2019-03-05T06:54:34.742Z,6.70
2019-03-05T06:58:45.896Z,6.70
2019-03-05T07:02:57.159Z,6.70
2019-03-05T07:07:08.605Z,6.60
2019-03-05T07:11:40.840Z,6.60
2019-03-05T07:15:55.059Z,6.60
2019-03-05T07:20:25.747Z,6.60
2019-03-05T07:24:42.755Z,6.60
2019-03-05T07:28:53.916Z,6.60
2019-03-05T07:33:05.467Z,6.60
2019-03-05T07:37:16.617Z,6.70
2019-03-05T07:41:27.743Z,6.80
2019-03-05T07:45:38.960Z,7.10
2019-03-05T07:49:50.196Z,7.80
2019-03-05T07:54:02.962Z,7.80
2019-03-05T07:58:14.416Z,8.10
2019-03-05T08:02:25.695Z,8.50
2019-03-05T08:06:36.807Z,8.30
2019-03-05T08:10:47.948Z,8.00
2019-03-05T08:15:02.340Z,7.80
2019-03-05T08:19:13.707Z,7.80
2019-03-05T08:23:26.170Z,7.70
2019-03-05T08:27:37.455Z,7.60
2019-03-05T08:31:48.964Z,7.60
2019-03-05T08:36:01.512Z,7.40
2019-03-05T08:40:15.377Z,7.40
2019-03-05T08:44:26.484Z,7.30
2019-03-05T08:48:37.826Z,7.40
2019-03-05T08:52:48.951Z,7.30
2019-03-05T08:57:00.084Z,7.30
2019-03-05T09:01:12.237Z,7.30
2019-03-05T09:05:23.388Z,7.20
2019-03-05T09:09:34.499Z,7.10
2019-03-05T09:13:45.753Z,7.20
2019-03-05T09:17:57.945Z,7.30
2019-03-05T09:22:09.248Z,7.40
2019-03-05T09:26:20.374Z,7.60
2019-03-05T09:30:33.783Z,7.70
2019-03-05T09:34:45.459Z,7.70
2019-03-05T09:38:56.608Z,7.90
2019-03-05T09:43:07.769Z,8.10
2019-03-05T09:47:19.032Z,8.20
2019-03-05T09:51:30.315Z,8.20
2019-03-05T09:55:41.678Z,8.20
2019-03-05T09:59:51.863Z,8.40
2019-03-05T10:04:03.404Z,8.30
2019-03-05T10:08:15.192Z,8.30
2019-03-05T10:12:26.424Z,8.20
2019-03-05T10:16:37.764Z,8.20
2019-03-05T10:20:49.569Z,8.30
2019-03-05T10:25:05.904Z,8.40
2019-03-05T10:29:15.062Z,8.60
2019-03-05T10:33:26.520Z,8.60
2019-03-05T10:37:37.679Z,8.60
2019-03-05T10:41:48.880Z,8.60
2019-03-05T10:46:00.704Z,8.70
2019-03-05T10:50:15.706Z,8.60
2019-03-05T10:54:26.959Z,8.60
2019-03-05T10:58:38.124Z,8.50
2019-03-05T11:02:50.419Z,8.50
2019-03-05T11:07:01.652Z,8.40
2019-03-05T11:11:14.004Z,8.30
2019-03-05T11:15:28.108Z,8.10
2019-03-05T11:19:39.279Z,8.00
2019-03-05T11:23:52.893Z,8.00
2019-03-05T11:28:04.492Z,8.00
2019-03-05T11:32:15.816Z,7.90
2019-03-05T11:36:27.144Z,8.00
2019-03-05T11:40:39.398Z,8.10
2019-03-05T11:45:03.862Z,8.00
2019-03-05T11:49:03.500Z,8.00
2019-03-05T11:53:14.724Z,7.90
2019-03-05T11:57:26.016Z,7.80
2019-03-05T12:01:37.360Z,7.80
2019-03-05T12:05:47.954Z,7.80
2019-03-05T12:09:59.296Z,7.70
2019-03-05T12:14:10.466Z,7.60
2019-03-05T12:18:21.586Z,7.60
2019-03-05T12:22:32.845Z,7.60
2019-03-05T12:26:44.258Z,7.60
2019-03-05T12:30:55.488Z,7.60
2019-03-05T12:35:08.812Z,7.60
2019-03-05T12:39:21.604Z,7.60
2019-03-05T12:43:32.858Z,7.70
2019-03-05T12:47:44.461Z,7.70
2019-03-05T12:51:55.814Z,7.80
2019-03-05T12:56:07.162Z,7.80
2019-03-05T13:00:21.812Z,7.90
2019-03-05T13:04:41.225Z,7.90
2019-03-05T13:08:52.381Z,8.00
2019-03-05T13:13:03.812Z,8.20
2019-03-05T13:17:14.900Z,8.10
2019-03-05T13:21:26.056Z,8.10
2019-03-05T13:25:38.325Z,8.30
2019-03-05T13:29:49.781Z,8.40
2019-03-05T13:34:01.192Z,8.40
2019-03-05T13:38:12.683Z,8.50
2019-03-05T13:42:23.944Z,8.30
2019-03-05T13:46:35.132Z,8.10
2019-03-05T13:51:09.650Z,8.10
2019-03-05T13:55:40.501Z,8.10
2019-03-05T13:59:51.778Z,8.10
2019-03-05T14:04:16.678Z,8.30
2019-03-05T14:08:45.821Z,8.50
2019-03-05T14:12:57.124Z,8.70
2019-03-05T14:17:22.022Z,8.70
2019-03-05T14:21:33.247Z,8.80
2019-03-05T14:25:43.903Z,8.80
2019-03-05T14:29:55.024Z,8.80
2019-03-05T14:34:06.436Z,8.70
2019-03-05T14:38:18.264Z,8.60
2019-03-05T14:42:30.201Z,8.60
2019-03-05T14:46:41.929Z,8.70
2019-03-05T14:50:54.261Z,8.80
2019-03-05T14:55:08.409Z,8.70
2019-03-05T14:59:19.773Z,8.70
2019-03-05T15:03:30.990Z,8.10
2019-03-05T15:07:43.697Z,7.40
2019-03-05T15:11:56.554Z,7.30
2019-03-05T15:16:07.774Z,7.40
2019-03-05T15:20:19.154Z,7.50
2019-03-05T15:24:33.075Z,7.50
2019-03-05T15:28:55.732Z,7.60
2019-03-05T15:32:57.264Z,7.80
2019-03-05T15:37:08.511Z,8.00
2019-03-05T15:41:21.118Z,8.00
2019-03-05T15:45:32.343Z,7.80
2019-03-05T15:49:43.521Z,7.80
2019-03-05T15:53:54.884Z,7.80
2019-03-05T15:58:06.538Z,7.80
2019-03-05T16:02:19.464Z,7.80
2019-03-05T16:06:34.036Z,7.80
2019-03-05T16:10:43.453Z,7.60
2019-03-05T16:14:54.641Z,7.50
2019-03-05T16:19:04.926Z,7.40
2019-03-05T16:23:16.841Z,7.40
2019-03-05T16:27:30.055Z,7.30
2019-03-05T16:31:45.377Z,7.30
2019-03-05T16:36:13.883Z,7.20
2019-03-05T16:40:29.344Z,7.20
2019-03-05T16:44:51.076Z,7.20
2019-03-05T16:49:20.090Z,7.10
2019-03-05T16:53:33.130Z,7.10
2019-03-05T16:57:51.875Z,7.10
2019-03-05T17:02:07.284Z,7.10
2019-03-05T17:06:31.809Z,7.00
2019-03-05T17:10:50.500Z,6.90
2019-03-05T17:15:01.829Z,6.90
2019-03-05T17:19:13.533Z,6.90
2019-03-05T17:23:25.192Z,6.80
2019-03-05T17:27:36.773Z,6.80
2019-03-05T17:31:48.153Z,6.80
2019-03-05T17:35:59.257Z,6.70
2019-03-05T17:40:12.694Z,6.70
2019-03-05T17:44:23.972Z,6.70
2019-03-05T17:48:35.464Z,6.60
2019-03-05T17:52:48.775Z,6.60
2019-03-05T17:57:00.056Z,6.50
2019-03-05T18:01:11.272Z,6.50
2019-03-05T18:05:22.697Z,6.50
2019-03-05T18:09:34.531Z,6.50
2019-03-05T18:13:46.018Z,6.50
2019-03-05T18:17:57.635Z,6.40
2019-03-05T18:22:09.498Z,6.40
2019-03-05T18:26:21.310Z,6.40
2019-03-05T18:30:36.454Z,6.40
2019-03-05T18:34:48.919Z,6.30
2019-03-05T18:39:00.139Z,6.20
2019-03-05T18:43:11.394Z,6.20
2019-03-05T18:47:24.092Z,6.20
2019-03-05T18:51:35.179Z,6.10
2019-03-05T18:55:45.997Z,6.10
2019-03-05T18:59:57.916Z,6.20
2019-03-05T19:04:09.341Z,6.10
2019-03-05T19:08:21.252Z,6.10
2019-03-05T19:12:32.405Z,6.10
2019-03-05T19:16:44.515Z,6.00
2019-03-05T19:20:55.733Z,6.00
2019-03-05T19:25:12.952Z,6.00
2019-03-05T19:29:24.069Z,5.90
2019-03-05T19:33:35.843Z,5.90
2019-03-05T19:37:47.492Z,5.80
2019-03-05T19:41:58.978Z,5.80
2019-03-05T19:46:10.140Z,5.70
2019-03-05T19:50:23.508Z,5.70
2019-03-05T19:54:34.698Z,5.60
2019-03-05T19:58:45.962Z,5.50
2019-03-05T20:02:57.226Z,5.40
2019-03-05T20:07:08.471Z,5.30
2019-03-05T20:11:19.602Z,5.30
2019-03-05T20:15:32.272Z,5.30
2019-03-05T20:19:44.401Z,5.20
2019-03-05T20:23:55.648Z,5.20
2019-03-05T20:28:08.141Z,5.20
2019-03-05T20:32:19.401Z,5.10
2019-03-05T20:36:30.850Z,5.10
2019-03-05T20:40:42.182Z,5.10
2019-03-05T20:44:54.972Z,5.00
2019-03-05T20:49:06.366Z,5.00
2019-03-05T20:53:21.560Z,5.00
2019-03-05T20:57:34.124Z,4.90
2019-03-05T21:01:45.549Z,4.90
2019-03-05T21:05:58.335Z,4.80
2019-03-05T21:10:11.270Z,4.80
2019-03-05T21:14:22.857Z,4.70
2019-03-05T21:18:34.193Z,4.60
2019-03-05T21:22:45.708Z,4.60
2019-03-05T21:26:58.577Z,4.50
2019-03-05T21:31:11.368Z,4.40
2019-03-05T21:35:22.545Z,4.40
2019-03-05T21:39:33.692Z,4.30
2019-03-05T21:43:44.882Z,4.30
2019-03-05T21:47:56.094Z,4.20
2019-03-05T21:52:07.306Z,4.30
2019-03-05T21:56:17.435Z,4.30
2019-03-05T22:00:35.131Z,4.20
2019-03-05T22:04:46.740Z,4.20
2019-03-05T22:08:58.509Z,4.20
2019-03-05T22:13:08.599Z,4.20
2019-03-05T22:17:19.754Z,4.20
2019-03-05T22:21:30.965Z,4.10
2019-03-05T22:25:42.081Z,4.10
2019-03-05T22:29:53.194Z,4.10
2019-03-05T22:34:06.158Z,4.00
2019-03-05T22:38:17.515Z,4.00
2019-03-05T22:42:28.668Z,3.90
2019-03-05T22:46:39.783Z,3.90
2019-03-05T22:50:50.931Z,3.90
2019-03-05T22:55:02.088Z,3.90
2019-03-05T22:59:13.344Z,3.90
2019-03-05T23:03:27.204Z,3.80
2019-03-05T23:07:38.392Z,3.80
2019-03-05T23:11:51.215Z,3.80
2019-03-05T23:16:02.697Z,3.70
2019-03-05T23:20:16.234Z,3.70
2019-03-05T23:24:28.653Z,3.70
2019-03-05T23:28:39.949Z,3.60
2019-03-05T23:32:53.282Z,3.60
2019-03-05T23:37:05.469Z,3.60
2019-03-05T23:41:16.786Z,3.60
2019-03-05T23:45:29.207Z,3.60
2019-03-05T23:49:40.608Z,3.50
2019-03-05T23:53:54.551Z,3.50
2019-03-05T23:58:05.949Z,3.50
